createdAt,value
2022-10-06T00:00:00.867Z,3.77
2022-10-06T00:03:02.693Z,4.10
2022-10-06T00:06:05.315Z,3.43
2022-10-06T00:09:06.737Z,3.50
2022-10-06T00:12:09.280Z,3.60
2022-10-06T00:15:13.275Z,4.10
2022-10-06T00:18:14.706Z,3.40
2022-10-06T00:21:16.626Z,4.00
2022-10-06T00:24:18.531Z,3.83
2022-10-06T00:27:20.219Z,3.97
2022-10-06T00:30:24.500Z,4.00
2022-10-06T00:33:25.888Z,4.00
2022-10-06T00:36:28.281Z,3.80
2022-10-06T00:39:29.715Z,3.40
2022-10-06T00:42:32.893Z,3.57
2022-10-06T00:45:48.602Z,4.07
2022-10-06T00:48:55.598Z,3.97
2022-10-06T00:52:06.538Z,3.57
2022-10-06T00:55:11.228Z,3.63
2022-10-06T00:58:13.698Z,3.87
2022-10-06T01:01:15.153Z,3.90
2022-10-06T01:04:18.110Z,3.80
2022-10-06T01:07:21.226Z,4.30
2022-10-06T01:10:22.770Z,3.53
2022-10-06T01:13:26.274Z,4.30
2022-10-06T01:16:27.694Z,4.00
2022-10-06T01:19:50.807Z,3.90
2022-10-06T01:23:10.055Z,3.80
2022-10-06T01:26:14.406Z,3.83
2022-10-06T01:29:16.220Z,3.80
2022-10-06T01:32:17.825Z,4.17
2022-10-06T01:35:19.410Z,3.60
2022-10-06T01:38:21.901Z,4.00
2022-10-06T01:41:27.696Z,3.70
2022-10-06T01:44:29.642Z,3.57
2022-10-06T01:47:31.218Z,3.80
2022-10-06T01:50:33.795Z,3.30
2022-10-06T01:53:35.249Z,3.30
2022-10-06T01:56:36.657Z,3.43
2022-10-06T01:59:38.222Z,3.60
2022-10-06T02:02:40.678Z,3.63
2022-10-06T02:05:42.250Z,3.27
2022-10-06T02:08:43.798Z,3.40
2022-10-06T02:11:45.281Z,3.20
2022-10-06T02:14:46.763Z,3.70
2022-10-06T02:17:48.602Z,3.20
2022-10-06T02:20:50.392Z,3.80
2022-10-06T02:23:51.940Z,3.20
2022-10-06T02:26:54.064Z,3.17
2022-10-06T02:29:55.829Z,3.43
2022-10-06T02:32:57.354Z,3.40
2022-10-06T02:35:59.401Z,3.73
2022-10-06T02:39:03.193Z,3.40
2022-10-06T02:42:05.386Z,3.00
2022-10-06T02:45:07.305Z,3.50
2022-10-06T02:48:11.494Z,3.70
2022-10-06T02:51:19.016Z,3.70
2022-10-06T02:54:21.683Z,3.67
2022-10-06T02:57:23.149Z,3.77
2022-10-06T03:00:24.723Z,3.70
2022-10-06T03:03:26.136Z,3.07
2022-10-06T03:06:30.297Z,3.30
2022-10-06T03:09:41.690Z,3.50
2022-10-06T03:12:43.461Z,2.93
2022-10-06T03:15:44.941Z,3.10
2022-10-06T03:18:49.296Z,3.33
2022-10-06T03:21:50.766Z,3.30
2022-10-06T03:24:52.177Z,3.20
2022-10-06T03:27:54.022Z,3.27
2022-10-06T03:31:01.489Z,3.67
2022-10-06T03:34:03.542Z,3.20
2022-10-06T03:37:05.178Z,3.00
2022-10-06T03:40:07.040Z,3.47
2022-10-06T03:43:09.493Z,3.40
2022-10-06T03:46:14.109Z,3.53
2022-10-06T03:49:15.618Z,3.30
2022-10-06T03:52:18.570Z,3.30
2022-10-06T03:55:21.970Z,3.40
2022-10-06T03:58:23.485Z,3.60
2022-10-06T04:01:42.781Z,3.47
2022-10-06T04:04:46.438Z,3.47
2022-10-06T04:07:47.919Z,3.30
2022-10-06T04:10:49.578Z,3.83
2022-10-06T04:13:56.600Z,3.73
2022-10-06T04:16:59.266Z,3.40
2022-10-06T04:20:10.272Z,3.27
2022-10-06T04:23:12.326Z,3.27
2022-10-06T04:26:17.025Z,3.33
2022-10-06T04:29:22.045Z,3.20
2022-10-06T04:32:29.504Z,2.83
2022-10-06T04:35:30.883Z,2.63
2022-10-06T04:38:34.061Z,2.57
2022-10-06T04:41:36.850Z,2.97
2022-10-06T04:44:38.782Z,2.70
2022-10-06T04:47:41.201Z,2.83
2022-10-06T04:50:43.518Z,3.30
2022-10-06T04:53:48.466Z,2.57
2022-10-06T04:56:51.000Z,3.10
2022-10-06T05:00:15.188Z,2.90
2022-10-06T05:03:19.571Z,2.70
2022-10-06T05:06:24.097Z,2.70
2022-10-06T05:09:26.391Z,2.80
2022-10-06T05:12:31.008Z,3.30
2022-10-06T05:15:32.768Z,2.37
2022-10-06T05:18:35.464Z,2.63
2022-10-06T05:21:37.567Z,2.40
2022-10-06T05:24:40.520Z,2.40
2022-10-06T05:27:41.896Z,2.50
2022-10-06T05:30:43.300Z,2.67
2022-10-06T05:33:44.950Z,2.60
2022-10-06T05:36:46.967Z,2.10
2022-10-06T05:39:48.620Z,1.93
2022-10-06T05:42:50.901Z,2.07
2022-10-06T05:45:54.110Z,1.97
2022-10-06T05:48:58.405Z,1.70
2022-10-06T05:52:02.471Z,1.70
2022-10-06T05:55:07.216Z,1.97
2022-10-06T05:58:08.807Z,2.10
2022-10-06T06:01:12.860Z,1.93
2022-10-06T06:04:14.724Z,1.90
2022-10-06T06:07:21.374Z,1.90
2022-10-06T06:10:23.226Z,2.13
2022-10-06T06:13:24.953Z,1.97
2022-10-06T06:16:36.974Z,2.30
2022-10-06T06:19:38.493Z,2.20
2022-10-06T06:22:41.195Z,2.50
2022-10-06T06:25:44.176Z,2.80
2022-10-06T06:28:47.493Z,2.67
2022-10-06T06:31:51.239Z,2.40
2022-10-06T06:34:52.749Z,2.90
2022-10-06T06:37:54.398Z,2.40
2022-10-06T06:40:56.312Z,2.70
2022-10-06T06:44:00.025Z,2.70
2022-10-06T06:47:10.068Z,2.77
2022-10-06T06:50:15.053Z,2.97
2022-10-06T06:53:16.894Z,3.20
2022-10-06T06:56:21.795Z,3.17
2022-10-06T06:59:23.330Z,3.23
2022-10-06T07:02:29.734Z,3.90
2022-10-06T07:05:32.220Z,3.50
2022-10-06T07:08:33.621Z,3.73
2022-10-06T07:11:39.737Z,3.63
2022-10-06T07:15:07.368Z,3.77
2022-10-06T07:18:32.937Z,3.60
2022-10-06T07:21:53.134Z,3.63
2022-10-06T07:25:06.982Z,4.20
2022-10-06T07:28:12.173Z,3.20
2022-10-06T07:31:17.593Z,2.50
2022-10-06T07:34:19.136Z,2.70
2022-10-06T07:37:20.800Z,2.63
2022-10-06T07:40:22.717Z,2.10
2022-10-06T07:43:25.294Z,2.10
2022-10-06T07:46:27.516Z,2.50
2022-10-06T07:49:34.731Z,2.17
2022-10-06T07:52:39.065Z,1.80
2022-10-06T07:55:44.447Z,1.90
2022-10-06T07:58:58.340Z,2.00
2022-10-06T08:01:59.826Z,2.00
2022-10-06T08:05:01.329Z,1.90
2022-10-06T08:08:02.758Z,1.90
2022-10-06T08:11:06.460Z,2.00
2022-10-06T08:14:07.852Z,2.03
2022-10-06T08:17:09.298Z,1.80
2022-10-06T08:20:12.253Z,1.67
2022-10-06T08:23:14.213Z,2.03
2022-10-06T08:26:17.944Z,1.53
2022-10-06T08:29:19.332Z,1.30
2022-10-06T08:32:21.588Z,1.10
2022-10-06T08:35:23.064Z,1.27
2022-10-06T08:38:24.564Z,1.40
2022-10-06T08:41:31.949Z,1.60
2022-10-06T08:44:44.434Z,1.50
2022-10-06T08:47:55.056Z,1.50
2022-10-06T08:51:21.637Z,1.40
2022-10-06T08:54:50.173Z,1.30
2022-10-06T08:58:18.047Z,1.17
2022-10-06T09:01:25.859Z,2.00
2022-10-06T09:04:32.081Z,1.40
2022-10-06T09:07:42.129Z,1.20
2022-10-06T09:11:02.075Z,1.40
2022-10-06T09:14:10.485Z,1.20
2022-10-06T09:17:18.791Z,1.10
2022-10-06T09:20:32.613Z,1.43
2022-10-06T09:23:48.094Z,1.50
2022-10-06T09:26:51.049Z,1.30
2022-10-06T09:29:53.199Z,1.20
2022-10-06T09:33:00.091Z,1.20
2022-10-06T09:36:09.744Z,1.50
2022-10-06T09:39:24.644Z,1.30
2022-10-06T09:42:29.618Z,1.50
2022-10-06T09:45:31.403Z,1.30
2022-10-06T09:48:32.899Z,1.47
2022-10-06T09:51:36.391Z,1.50
2022-10-06T09:54:41.654Z,1.87
2022-10-06T09:57:51.400Z,1.80
2022-10-06T10:01:02.925Z,1.47
2022-10-06T10:04:21.371Z,1.80
2022-10-06T10:07:29.272Z,1.60
2022-10-06T10:10:30.779Z,1.50
2022-10-06T10:13:43.217Z,1.40
2022-10-06T10:16:48.631Z,1.67
2022-10-06T10:19:55.363Z,1.40
2022-10-06T10:23:09.169Z,1.67
2022-10-06T10:26:35.763Z,1.30
2022-10-06T10:29:53.115Z,1.63
2022-10-06T10:33:11.864Z,1.47
2022-10-06T10:36:16.383Z,1.63
2022-10-06T10:39:29.708Z,1.30
2022-10-06T10:42:39.633Z,1.30
2022-10-06T10:45:49.113Z,1.43
2022-10-06T10:49:08.984Z,1.77
2022-10-06T10:52:22.972Z,1.90
2022-10-06T10:55:29.813Z,1.73
2022-10-06T10:58:36.580Z,1.53
2022-10-06T11:01:49.742Z,1.80
2022-10-06T11:04:57.725Z,2.07
2022-10-06T11:08:02.356Z,1.57
2022-10-06T11:11:12.262Z,1.47
2022-10-06T11:14:33.953Z,1.90
2022-10-06T11:17:43.994Z,1.50
2022-10-06T11:20:55.864Z,1.60
2022-10-06T11:24:03.251Z,1.50
2022-10-06T11:27:30.800Z,1.50
2022-10-06T11:30:37.958Z,1.47
2022-10-06T11:33:49.024Z,1.73
2022-10-06T11:36:50.341Z,1.47
2022-10-06T11:40:13.994Z,1.23
2022-10-06T11:43:52.972Z,1.13
2022-10-06T11:47:02.886Z,1.20
2022-10-06T11:50:42.590Z,1.20
2022-10-06T11:53:44.996Z,1.20
2022-10-06T11:56:46.547Z,1.10
2022-10-06T11:59:55.857Z,1.10
2022-10-06T12:03:29.462Z,1.23
2022-10-06T12:06:45.830Z,1.30
2022-10-06T12:09:52.471Z,1.33
2022-10-06T12:17:12.805Z,1.40
2022-10-06T12:20:38.866Z,1.17
2022-10-06T12:24:19.554Z,1.37
2022-10-06T12:27:30.426Z,1.30
2022-10-06T12:30:50.560Z,1.10
2022-10-06T12:33:52.472Z,1.20
2022-10-06T12:37:20.492Z,1.20
2022-10-06T12:40:48.940Z,1.10
2022-10-06T12:43:55.202Z,1.20
2022-10-06T12:47:03.866Z,1.30
2022-10-06T12:50:16.914Z,1.27
2022-10-06T12:53:27.682Z,1.20
2022-10-06T12:56:35.006Z,1.60
2022-10-06T12:59:38.403Z,1.97
2022-10-06T13:02:43.880Z,1.30
2022-10-06T13:05:55.946Z,1.20
2022-10-06T13:09:13.872Z,1.30
2022-10-06T13:12:23.410Z,1.20
2022-10-06T13:15:36.488Z,1.13
2022-10-06T13:18:37.907Z,1.47
2022-10-06T13:21:39.387Z,1.10
2022-10-06T13:24:40.943Z,1.07
2022-10-06T13:27:50.359Z,1.30
2022-10-06T13:34:15.040Z,1.20
2022-10-06T13:37:16.708Z,1.63
2022-10-06T13:40:45.895Z,1.43
2022-10-06T13:43:52.449Z,1.87
2022-10-06T13:46:59.285Z,1.30
2022-10-06T13:50:05.862Z,1.10
2022-10-06T13:53:23.451Z,1.37
2022-10-06T13:56:32.394Z,1.23
2022-10-06T13:59:36.939Z,1.17
2022-10-06T14:02:38.762Z,1.30
2022-10-06T14:05:42.219Z,1.23
2022-10-06T14:08:52.388Z,1.13
2022-10-06T14:12:02.805Z,1.37
2022-10-06T14:15:05.474Z,1.40
2022-10-06T14:18:07.068Z,1.30
2022-10-06T14:21:27.241Z,1.20
2022-10-06T14:24:28.924Z,1.40
2022-10-06T14:27:30.314Z,1.10
2022-10-06T14:30:31.696Z,1.40
2022-10-06T14:33:33.973Z,1.20
2022-10-06T14:36:39.509Z,1.37
2022-10-06T14:39:42.493Z,1.20
2022-10-06T14:42:43.973Z,1.40
2022-10-06T14:45:45.536Z,1.23
2022-10-06T14:48:47.002Z,1.17
2022-10-06T14:51:48.442Z,1.50
2022-10-06T14:54:50.704Z,1.40
2022-10-06T14:57:52.073Z,1.43
2022-10-06T15:00:53.478Z,1.60
2022-10-06T15:03:57.835Z,1.70
2022-10-06T15:07:17.810Z,1.40
2022-10-06T15:10:19.231Z,1.43
2022-10-06T15:13:20.702Z,1.60
2022-10-06T15:16:23.222Z,1.50
2022-10-06T15:19:24.908Z,1.53
2022-10-06T15:22:26.350Z,1.40
2022-10-06T15:25:46.077Z,1.37
2022-10-06T15:29:03.058Z,1.17
2022-10-06T15:32:06.016Z,1.03
2022-10-06T15:35:08.086Z,1.30
2022-10-06T15:38:09.529Z,1.20
2022-10-06T15:41:11.575Z,1.47
2022-10-06T15:44:14.016Z,1.23
2022-10-06T15:47:15.635Z,1.20
2022-10-06T15:50:18.938Z,1.17
2022-10-06T15:53:22.431Z,1.20
2022-10-06T15:56:28.949Z,1.40
2022-10-06T15:59:31.583Z,1.30
2022-10-06T16:02:35.679Z,1.40
2022-10-06T16:05:51.695Z,1.30
2022-10-06T16:08:54.735Z,1.30
2022-10-06T16:11:57.947Z,1.40
2022-10-06T16:14:59.388Z,1.40
2022-10-06T16:18:00.868Z,1.60
2022-10-06T16:21:02.324Z,1.10
2022-10-06T16:24:03.963Z,1.30
2022-10-06T16:27:05.494Z,1.30
2022-10-06T16:30:07.831Z,1.40
2022-10-06T16:33:09.258Z,1.63
2022-10-06T16:36:11.634Z,1.90
2022-10-06T16:39:15.681Z,1.70
2022-10-06T16:42:17.917Z,1.60
2022-10-06T16:45:19.344Z,1.97
2022-10-06T16:48:20.809Z,2.17
2022-10-06T16:51:25.229Z,1.87
2022-10-06T16:54:26.950Z,1.80
2022-10-06T16:57:28.774Z,1.77
2022-10-06T17:00:30.172Z,1.77
2022-10-06T17:03:31.636Z,1.40
2022-10-06T17:06:57.070Z,1.67
2022-10-06T17:10:18.868Z,1.50
2022-10-06T17:13:19.905Z,1.90
2022-10-06T17:16:27.437Z,2.20
2022-10-06T17:19:30.349Z,2.10
2022-10-06T17:22:31.749Z,2.80
2022-10-06T17:25:33.783Z,4.70
2022-10-06T17:28:36.204Z,5.00
2022-10-06T17:31:39.967Z,5.00
2022-10-06T17:34:41.400Z,5.37
2022-10-06T17:37:42.852Z,5.33
2022-10-06T17:40:44.772Z,5.80
2022-10-06T17:43:48.806Z,5.00
2022-10-06T17:46:52.784Z,5.50
2022-10-06T17:49:56.600Z,4.90
2022-10-06T17:52:59.264Z,5.50
2022-10-06T17:56:11.425Z,4.50
2022-10-06T17:59:16.273Z,5.00
2022-10-06T18:02:17.721Z,4.80
2022-10-06T18:05:19.350Z,5.07
2022-10-06T18:08:23.362Z,4.23
2022-10-06T18:11:35.970Z,4.37
2022-10-06T18:14:37.382Z,4.43
2022-10-06T18:17:38.790Z,5.07
2022-10-06T18:20:41.488Z,4.40
2022-10-06T18:23:43.373Z,4.53
2022-10-06T18:26:48.014Z,4.70
2022-10-06T18:29:49.588Z,4.53
2022-10-06T18:36:14.939Z,5.53
2022-10-06T18:39:16.754Z,6.10
2022-10-06T18:42:19.283Z,6.37
2022-10-06T18:45:39.729Z,5.80
2022-10-06T18:48:58.198Z,5.70
2022-10-06T18:52:01.595Z,5.40
2022-10-06T18:55:03.035Z,5.50
2022-10-06T18:58:05.154Z,5.20
2022-10-06T19:01:07.050Z,5.00
2022-10-06T19:04:10.050Z,4.40
2022-10-06T19:07:11.604Z,4.07
2022-10-06T19:10:13.030Z,3.70
2022-10-06T19:13:14.405Z,3.97
2022-10-06T19:16:17.310Z,3.70
2022-10-06T19:19:19.816Z,3.37
2022-10-06T19:22:24.602Z,3.20
2022-10-06T19:25:26.789Z,3.27
2022-10-06T19:28:33.203Z,3.03
2022-10-06T19:31:39.684Z,3.23
2022-10-06T19:34:43.719Z,3.40
2022-10-06T19:37:45.672Z,3.00
2022-10-06T19:40:47.883Z,2.57
2022-10-06T19:43:50.622Z,2.90
2022-10-06T19:46:52.992Z,2.80
2022-10-06T19:49:58.272Z,3.10
2022-10-06T19:53:01.692Z,3.20
2022-10-06T19:56:04.158Z,2.50
2022-10-06T19:59:06.206Z,2.60
2022-10-06T20:02:08.542Z,3.50
2022-10-06T20:05:14.810Z,3.00
2022-10-06T20:08:16.205Z,3.50
2022-10-06T20:11:21.696Z,3.40
2022-10-06T20:14:23.829Z,3.40
2022-10-06T20:17:25.218Z,3.17
2022-10-06T20:20:26.681Z,2.73
2022-10-06T20:23:28.058Z,2.93
2022-10-06T20:26:32.957Z,3.50
2022-10-06T20:29:34.771Z,3.70
2022-10-06T20:32:36.211Z,3.80
2022-10-06T20:35:37.620Z,3.50
2022-10-06T20:38:58.797Z,3.93
2022-10-06T20:42:00.210Z,4.20
2022-10-06T20:45:01.621Z,4.13
2022-10-06T20:48:03.089Z,3.97
2022-10-06T20:51:12.636Z,4.07
2022-10-06T20:54:14.232Z,3.30
2022-10-06T20:57:15.687Z,3.50
2022-10-06T21:00:17.745Z,3.17
2022-10-06T21:03:19.326Z,3.30
2022-10-06T21:06:23.647Z,3.27
2022-10-06T21:09:28.277Z,3.00
2022-10-06T21:12:29.887Z,3.07
2022-10-06T21:15:31.596Z,3.17
2022-10-06T21:18:34.211Z,2.97
2022-10-06T21:21:37.345Z,2.77
2022-10-06T21:24:38.920Z,2.60
2022-10-06T21:27:40.565Z,2.50
2022-10-06T21:30:44.294Z,2.47
2022-10-06T21:33:46.989Z,2.40
2022-10-06T21:36:48.691Z,2.40
2022-10-06T21:39:50.319Z,2.97
2022-10-06T21:42:51.883Z,2.90
2022-10-06T21:46:10.730Z,2.40
2022-10-06T21:49:25.446Z,2.53
2022-10-06T21:52:27.044Z,2.87
2022-10-06T21:55:28.636Z,2.80
2022-10-06T21:58:30.197Z,3.00
2022-10-06T22:01:34.801Z,2.87
2022-10-06T22:04:37.648Z,2.30
2022-10-06T22:07:39.232Z,2.90
2022-10-06T22:10:40.801Z,2.70
2022-10-06T22:13:45.368Z,2.33
2022-10-06T22:16:47.161Z,2.73
2022-10-06T22:19:48.730Z,1.97
2022-10-06T22:22:51.391Z,2.20
2022-10-06T22:25:57.653Z,2.20
2022-10-06T22:28:59.974Z,2.10
2022-10-06T22:32:01.560Z,2.10
2022-10-06T22:35:03.474Z,2.20
2022-10-06T22:38:05.051Z,3.47
2022-10-06T22:41:09.072Z,2.70
2022-10-06T22:44:10.707Z,2.20
2022-10-06T22:47:12.540Z,2.37
2022-10-06T22:50:14.118Z,2.60
2022-10-06T22:53:20.965Z,2.67
2022-10-06T22:56:22.918Z,2.30
2022-10-06T22:59:24.537Z,2.43
2022-10-06T23:02:26.114Z,2.60
2022-10-06T23:05:28.147Z,2.40
2022-10-06T23:08:34.855Z,2.60
2022-10-06T23:11:36.946Z,2.70
2022-10-06T23:14:38.519Z,2.50
2022-10-06T23:17:41.801Z,1.90
2022-10-06T23:20:43.729Z,1.97
2022-10-06T23:23:46.497Z,1.77
2022-10-06T23:26:48.071Z,1.57
2022-10-06T23:29:49.872Z,1.70
2022-10-06T23:32:51.510Z,1.30
2022-10-06T23:36:00.743Z,1.60
2022-10-06T23:39:02.327Z,1.93
2022-10-06T23:42:04.108Z,1.70
2022-10-06T23:45:07.736Z,1.77
2022-10-06T23:48:09.367Z,2.27
2022-10-06T23:51:13.528Z,2.27
2022-10-06T23:54:15.097Z,2.20
2022-10-06T23:57:16.725Z,2.63
